sensor_id;sensor_type;location;lat;lon;timestamp;P1;durP1;ratioP1;P2;durP2;ratioP2
9117;SDS011;4594;50.994;7.126;2023-07-22T00:01:01;4.93;;;4.53;;
9117;SDS011;4594;50.994;7.126;2023-07-22T00:03:27;5.20;;;4.70;;
9117;SDS011;4594;50.994;7.126;2023-07-22T00:08:36;6.33;;;4.90;;
9117;SDS011;4594;50.994;7.126;2023-07-22T00:11:03;5.23;;;4.83;;
9117;SDS011;4594;50.994;7.126;2023-07-22T00:13:31;5.33;;;4.77;;
9117;SDS011;4594;50.994;7.126;2023-07-22T00:15:58;5.40;;;4.90;;
9117;SDS011;4594;50.994;7.126;2023-07-22T00:18:26;4.60;;;4.20;;
9117;SDS011;4594;50.994;7.126;2023-07-22T00:20:53;4.87;;;4.47;;
9117;SDS011;4594;50.994;7.126;2023-07-22T00:23:20;5.30;;;4.80;;
9117;SDS011;4594;50.994;7.126;2023-07-22T00:25:46;5.33;;;4.83;;
9117;SDS011;4594;50.994;7.126;2023-07-22T00:28:12;5.30;;;4.80;;
9117;SDS011;4594;50.994;7.126;2023-07-22T00:30:38;4.93;;;4.47;;
9117;SDS011;4594;50.994;7.126;2023-07-22T00:33:04;5.73;;;5.03;;
9117;SDS011;4594;50.994;7.126;2023-07-22T00:35:30;5.60;;;4.73;;
9117;SDS011;4594;50.994;7.126;2023-07-22T00:37:57;5.50;;;5.00;;
9117;SDS011;4594;50.994;7.126;2023-07-22T00:40:23;5.13;;;4.63;;
9117;SDS011;4594;50.994;7.126;2023-07-22T00:42:49;8.63;;;5.27;;
9117;SDS011;4594;50.994;7.126;2023-07-22T00:45:15;5.40;;;4.90;;
9117;SDS011;4594;50.994;7.126;2023-07-22T00:47:41;5.23;;;4.73;;
9117;SDS011;4594;50.994;7.126;2023-07-22T00:50:09;7.27;;;5.30;;
9117;SDS011;4594;50.994;7.126;2023-07-22T00:52:35;5.30;;;4.70;;
9117;SDS011;4594;50.994;7.126;2023-07-22T00:55:03;5.73;;;5.13;;
9117;SDS011;4594;50.994;7.126;2023-07-22T00:57:32;5.50;;;5.00;;
9117;SDS011;4594;50.994;7.126;2023-07-22T00:59:58;5.23;;;4.73;;
9117;SDS011;4594;50.994;7.126;2023-07-22T01:02:24;5.63;;;4.70;;
9117;SDS011;4594;50.994;7.126;2023-07-22T01:04:50;4.90;;;4.50;;
9117;SDS011;4594;50.994;7.126;2023-07-22T01:07:19;5.20;;;4.80;;
9117;SDS011;4594;50.994;7.126;2023-07-22T01:09:45;7.47;;;4.57;;
9117;SDS011;4594;50.994;7.126;2023-07-22T01:12:11;4.73;;;4.37;;
9117;SDS011;4594;50.994;7.126;2023-07-22T01:14:37;7.50;;;4.87;;
9117;SDS011;4594;50.994;7.126;2023-07-22T01:17:06;7.23;;;4.70;;
9117;SDS011;4594;50.994;7.126;2023-07-22T01:19:34;5.47;;;4.87;;
9117;SDS011;4594;50.994;7.126;2023-07-22T01:22:00;5.00;;;4.60;;
9117;SDS011;4594;50.994;7.126;2023-07-22T01:24:34;4.17;;;3.87;;
9117;SDS011;4594;50.994;7.126;2023-07-22T01:27:00;5.53;;;4.77;;
9117;SDS011;4594;50.994;7.126;2023-07-22T01:29:28;5.70;;;4.50;;
9117;SDS011;4594;50.994;7.126;2023-07-22T01:31:54;5.10;;;4.70;;
9117;SDS011;4594;50.994;7.126;2023-07-22T01:34:20;6.33;;;5.23;;
9117;SDS011;4594;50.994;7.126;2023-07-22T01:36:48;5.30;;;4.90;;
9117;SDS011;4594;50.994;7.126;2023-07-22T01:39:14;5.87;;;5.03;;
9117;SDS011;4594;50.994;7.126;2023-07-22T01:41:40;5.03;;;4.57;;
9117;SDS011;4594;50.994;7.126;2023-07-22T01:44:07;5.43;;;4.93;;
9117;SDS011;4594;50.994;7.126;2023-07-22T01:46:33;5.20;;;4.70;;
9117;SDS011;4594;50.994;7.126;2023-07-22T01:49:00;5.23;;;4.73;;
9117;SDS011;4594;50.994;7.126;2023-07-22T01:51:26;8.53;;;5.50;;
9117;SDS011;4594;50.994;7.126;2023-07-22T01:53:52;4.87;;;4.37;;
9117;SDS011;4594;50.994;7.126;2023-07-22T01:56:18;8.63;;;4.37;;
9117;SDS011;4594;50.994;7.126;2023-07-22T01:58:47;5.80;;;5.20;;
9117;SDS011;4594;50.994;7.126;2023-07-22T02:01:12;5.53;;;5.03;;
9117;SDS011;4594;50.994;7.126;2023-07-22T02:03:40;4.90;;;4.53;;
9117;SDS011;4594;50.994;7.126;2023-07-22T02:06:06;5.97;;;4.33;;
9117;SDS011;4594;50.994;7.126;2023-07-22T02:08:32;5.10;;;4.50;;
9117;SDS011;4594;50.994;7.126;2023-07-22T02:11:01;6.00;;;5.40;;
9117;SDS011;4594;50.994;7.126;2023-07-22T02:13:33;5.27;;;4.77;;
9117;SDS011;4594;50.994;7.126;2023-07-22T02:16:00;5.63;;;5.10;;
9117;SDS011;4594;50.994;7.126;2023-07-22T02:18:26;12.93;;;5.37;;
9117;SDS011;4594;50.994;7.126;2023-07-22T02:20:53;5.30;;;4.80;;
9117;SDS011;4594;50.994;7.126;2023-07-22T02:23:20;6.13;;;5.37;;
9117;SDS011;4594;50.994;7.126;2023-07-22T02:25:50;6.87;;;5.60;;
9117;SDS011;4594;50.994;7.126;2023-07-22T02:28:17;6.50;;;5.47;;
9117;SDS011;4594;50.994;7.126;2023-07-22T02:30:46;8.73;;;5.37;;
9117;SDS011;4594;50.994;7.126;2023-07-22T02:33:13;6.33;;;5.30;;
9117;SDS011;4594;50.994;7.126;2023-07-22T02:35:40;5.87;;;4.90;;
9117;SDS011;4594;50.994;7.126;2023-07-22T02:38:07;5.90;;;5.30;;
9117;SDS011;4594;50.994;7.126;2023-07-22T02:40:36;8.07;;;5.67;;
9117;SDS011;4594;50.994;7.126;2023-07-22T02:43:03;10.10;;;5.17;;
9117;SDS011;4594;50.994;7.126;2023-07-22T02:45:29;5.73;;;4.67;;
9117;SDS011;4594;50.994;7.126;2023-07-22T02:47:55;6.10;;;5.50;;
9117;SDS011;4594;50.994;7.126;2023-07-22T02:50:20;6.47;;;4.90;;
9117;SDS011;4594;50.994;7.126;2023-07-22T02:52:46;5.50;;;4.93;;
9117;SDS011;4594;50.994;7.126;2023-07-22T02:55:13;5.87;;;5.20;;
9117;SDS011;4594;50.994;7.126;2023-07-22T02:57:43;5.07;;;4.57;;
9117;SDS011;4594;50.994;7.126;2023-07-22T03:00:14;4.93;;;4.53;;
9117;SDS011;4594;50.994;7.126;2023-07-22T03:02:55;5.13;;;4.63;;
9117;SDS011;4594;50.994;7.126;2023-07-22T03:05:30;6.27;;;4.40;;
9117;SDS011;4594;50.994;7.126;2023-07-22T03:07:57;5.50;;;4.83;;
9117;SDS011;4594;50.994;7.126;2023-07-22T03:10:24;7.23;;;4.83;;
9117;SDS011;4594;50.994;7.126;2023-07-22T03:12:50;5.10;;;4.60;;
9117;SDS011;4594;50.994;7.126;2023-07-22T03:15:20;5.60;;;5.10;;
9117;SDS011;4594;50.994;7.126;2023-07-22T03:17:47;7.17;;;5.30;;
9117;SDS011;4594;50.994;7.126;2023-07-22T03:20:14;5.23;;;4.73;;
9117;SDS011;4594;50.994;7.126;2023-07-22T03:22:42;8.50;;;5.07;;
9117;SDS011;4594;50.994;7.126;2023-07-22T03:25:09;4.60;;;4.30;;
9117;SDS011;4594;50.994;7.126;2023-07-22T03:27:36;4.93;;;4.53;;
9117;SDS011;4594;50.994;7.126;2023-07-22T03:30:04;5.30;;;4.67;;
9117;SDS011;4594;50.994;7.126;2023-07-22T03:32:41;7.20;;;4.37;;
9117;SDS011;4594;50.994;7.126;2023-07-22T03:35:09;6.50;;;5.10;;
9117;SDS011;4594;50.994;7.126;2023-07-22T03:37:38;5.90;;;4.43;;
9117;SDS011;4594;50.994;7.126;2023-07-22T03:40:05;5.03;;;4.53;;
9117;SDS011;4594;50.994;7.126;2023-07-22T03:42:53;5.30;;;4.40;;
9117;SDS011;4594;50.994;7.126;2023-07-22T03:45:20;8.20;;;4.43;;
9117;SDS011;4594;50.994;7.126;2023-07-22T03:47:50;5.00;;;4.50;;
9117;SDS011;4594;50.994;7.126;2023-07-22T03:50:19;12.13;;;4.60;;
9117;SDS011;4594;50.994;7.126;2023-07-22T03:52:45;6.93;;;4.70;;
9117;SDS011;4594;50.994;7.126;2023-07-22T03:55:10;6.37;;;4.27;;
9117;SDS011;4594;50.994;7.126;2023-07-22T03:57:36;5.97;;;4.63;;
9117;SDS011;4594;50.994;7.126;2023-07-22T04:00:02;5.73;;;5.17;;
9117;SDS011;4594;50.994;7.126;2023-07-22T04:02:30;4.83;;;4.33;;
9117;SDS011;4594;50.994;7.126;2023-07-22T04:04:56;4.77;;;4.37;;
9117;SDS011;4594;50.994;7.126;2023-07-22T04:07:22;4.93;;;4.53;;
9117;SDS011;4594;50.994;7.126;2023-07-22T04:09:47;6.00;;;4.50;;
9117;SDS011;4594;50.994;7.126;2023-07-22T04:12:13;8.67;;;4.17;;
9117;SDS011;4594;50.994;7.126;2023-07-22T04:14:39;4.80;;;4.40;;
9117;SDS011;4594;50.994;7.126;2023-07-22T04:17:05;4.70;;;4.30;;
9117;SDS011;4594;50.994;7.126;2023-07-22T04:19:31;4.33;;;4.03;;
9117;SDS011;4594;50.994;7.126;2023-07-22T04:21:57;6.17;;;4.40;;
9117;SDS011;4594;50.994;7.126;2023-07-22T04:24:24;4.53;;;4.00;;
9117;SDS011;4594;50.994;7.126;2023-07-22T04:26:50;4.63;;;4.23;;
9117;SDS011;4594;50.994;7.126;2023-07-22T04:29:16;4.80;;;4.40;;
9117;SDS011;4594;50.994;7.126;2023-07-22T04:31:42;5.83;;;4.80;;
9117;SDS011;4594;50.994;7.126;2023-07-22T04:34:08;5.43;;;4.03;;
9117;SDS011;4594;50.994;7.126;2023-07-22T04:36:34;5.10;;;4.60;;
9117;SDS011;4594;50.994;7.126;2023-07-22T04:39:01;5.17;;;4.33;;
9117;SDS011;4594;50.994;7.126;2023-07-22T04:41:30;5.03;;;4.57;;
9117;SDS011;4594;50.994;7.126;2023-07-22T04:43:56;5.03;;;4.57;;
9117;SDS011;4594;50.994;7.126;2023-07-22T04:46:23;6.20;;;4.60;;
9117;SDS011;4594;50.994;7.126;2023-07-22T04:48:51;4.53;;;4.13;;
9117;SDS011;4594;50.994;7.126;2023-07-22T04:51:20;4.13;;;3.63;;
9117;SDS011;4594;50.994;7.126;2023-07-22T04:53:46;5.40;;;4.30;;
9117;SDS011;4594;50.994;7.126;2023-07-22T04:56:12;7.23;;;4.30;;
9117;SDS011;4594;50.994;7.126;2023-07-22T04:58:37;5.07;;;3.80;;
9117;SDS011;4594;50.994;7.126;2023-07-22T05:01:03;5.00;;;4.50;;
9117;SDS011;4594;50.994;7.126;2023-07-22T05:03:29;4.77;;;4.47;;
9117;SDS011;4594;50.994;7.126;2023-07-22T05:05:55;4.73;;;4.40;;
9117;SDS011;4594;50.994;7.126;2023-07-22T05:08:22;4.43;;;4.03;;
9117;SDS011;4594;50.994;7.126;2023-07-22T05:10:48;5.47;;;4.50;;
9117;SDS011;4594;50.994;7.126;2023-07-22T05:13:14;4.60;;;4.20;;
9117;SDS011;4594;50.994;7.126;2023-07-22T05:15:41;7.47;;;5.67;;
9117;SDS011;4594;50.994;7.126;2023-07-22T05:18:07;4.77;;;4.37;;
9117;SDS011;4594;50.994;7.126;2023-07-22T05:20:32;5.03;;;4.40;;
9117;SDS011;4594;50.994;7.126;2023-07-22T05:22:58;6.53;;;4.20;;
9117;SDS011;4594;50.994;7.126;2023-07-22T05:25:24;5.00;;;4.53;;
9117;SDS011;4594;50.994;7.126;2023-07-22T05:27:50;5.80;;;3.97;;
9117;SDS011;4594;50.994;7.126;2023-07-22T05:30:15;4.30;;;3.90;;
9117;SDS011;4594;50.994;7.126;2023-07-22T05:32:41;5.20;;;4.50;;
9117;SDS011;4594;50.994;7.126;2023-07-22T05:35:07;4.17;;;3.80;;
9117;SDS011;4594;50.994;7.126;2023-07-22T05:37:34;4.77;;;4.37;;
9117;SDS011;4594;50.994;7.126;2023-07-22T05:39:59;5.00;;;4.33;;
9117;SDS011;4594;50.994;7.126;2023-07-22T05:42:26;5.13;;;4.03;;
9117;SDS011;4594;50.994;7.126;2023-07-22T05:44:54;4.10;;;3.70;;
9117;SDS011;4594;50.994;7.126;2023-07-22T05:47:23;4.60;;;4.20;;
9117;SDS011;4594;50.994;7.126;2023-07-22T05:49:48;4.40;;;4.00;;
9117;SDS011;4594;50.994;7.126;2023-07-22T05:52:14;5.27;;;4.13;;
9117;SDS011;4594;50.994;7.126;2023-07-22T05:54:40;5.70;;;4.00;;
9117;SDS011;4594;50.994;7.126;2023-07-22T05:57:06;5.20;;;4.10;;
9117;SDS011;4594;50.994;7.126;2023-07-22T05:59:31;3.87;;;3.57;;
9117;SDS011;4594;50.994;7.126;2023-07-22T06:01:57;4.03;;;3.70;;
9117;SDS011;4594;50.994;7.126;2023-07-22T06:04:23;4.70;;;3.73;;
9117;SDS011;4594;50.994;7.126;2023-07-22T06:06:49;4.07;;;3.67;;
9117;SDS011;4594;50.994;7.126;2023-07-22T06:09:14;10.33;;;3.80;;
9117;SDS011;4594;50.994;7.126;2023-07-22T06:11:40;5.23;;;3.57;;
9117;SDS011;4594;50.994;7.126;2023-07-22T06:14:05;3.73;;;3.33;;
9117;SDS011;4594;50.994;7.126;2023-07-22T06:16:33;3.50;;;3.30;;
9117;SDS011;4594;50.994;7.126;2023-07-22T06:18:58;3.77;;;3.57;;
9117;SDS011;4594;50.994;7.126;2023-07-22T06:21:24;4.10;;;3.70;;
9117;SDS011;4594;50.994;7.126;2023-07-22T06:23:50;3.50;;;3.20;;
9117;SDS011;4594;50.994;7.126;2023-07-22T06:26:16;2.90;;;2.73;;
9117;SDS011;4594;50.994;7.126;2023-07-22T06:28:41;3.43;;;3.13;;
9117;SDS011;4594;50.994;7.126;2023-07-22T06:31:07;3.80;;;3.50;;
9117;SDS011;4594;50.994;7.126;2023-07-22T06:33:33;6.30;;;4.00;;
9117;SDS011;4594;50.994;7.126;2023-07-22T06:35:58;3.80;;;3.43;;
9117;SDS011;4594;50.994;7.126;2023-07-22T06:38:24;3.80;;;3.20;;
9117;SDS011;4594;50.994;7.126;2023-07-22T06:40:52;3.67;;;3.37;;
9117;SDS011;4594;50.994;7.126;2023-07-22T06:43:18;3.53;;;3.30;;
9117;SDS011;4594;50.994;7.126;2023-07-22T06:45:44;3.20;;;3.00;;
9117;SDS011;4594;50.994;7.126;2023-07-22T06:48:10;3.67;;;3.37;;
9117;SDS011;4594;50.994;7.126;2023-07-22T06:50:35;6.13;;;5.03;;
9117;SDS011;4594;50.994;7.126;2023-07-22T06:53:01;4.30;;;3.53;;
9117;SDS011;4594;50.994;7.126;2023-07-22T06:55:27;3.93;;;3.63;;
9117;SDS011;4594;50.994;7.126;2023-07-22T06:57:55;3.57;;;3.37;;
9117;SDS011;4594;50.994;7.126;2023-07-22T07:00:21;3.53;;;3.30;;
9117;SDS011;4594;50.994;7.126;2023-07-22T07:02:47;3.30;;;3.00;;
9117;SDS011;4594;50.994;7.126;2023-07-22T07:05:12;3.60;;;3.30;;
9117;SDS011;4594;50.994;7.126;2023-07-22T07:07:38;4.00;;;3.60;;
9117;SDS011;4594;50.994;7.126;2023-07-22T07:10:06;3.70;;;3.40;;
9117;SDS011;4594;50.994;7.126;2023-07-22T07:12:32;3.40;;;3.20;;
9117;SDS011;4594;50.994;7.126;2023-07-22T07:14:57;3.07;;;2.77;;
9117;SDS011;4594;50.994;7.126;2023-07-22T07:17:23;4.13;;;2.80;;
9117;SDS011;4594;50.994;7.126;2023-07-22T07:19:49;3.07;;;2.87;;
9117;SDS011;4594;50.994;7.126;2023-07-22T07:22:15;3.30;;;3.00;;
9117;SDS011;4594;50.994;7.126;2023-07-22T07:24:41;4.53;;;3.20;;
9117;SDS011;4594;50.994;7.126;2023-07-22T07:27:07;3.40;;;3.20;;
9117;SDS011;4594;50.994;7.126;2023-07-22T07:29:32;4.97;;;3.43;;
9117;SDS011;4594;50.994;7.126;2023-07-22T07:31:58;3.93;;;3.47;;
9117;SDS011;4594;50.994;7.126;2023-07-22T07:34:23;3.67;;;3.37;;
9117;SDS011;4594;50.994;7.126;2023-07-22T07:36:49;3.37;;;3.07;;
9117;SDS011;4594;50.994;7.126;2023-07-22T07:39:15;4.23;;;3.83;;
9117;SDS011;4594;50.994;7.126;2023-07-22T07:41:41;5.63;;;3.57;;
9117;SDS011;4594;50.994;7.126;2023-07-22T07:44:06;3.87;;;3.37;;
9117;SDS011;4594;50.994;7.126;2023-07-22T07:46:32;5.33;;;3.37;;
9117;SDS011;4594;50.994;7.126;2023-07-22T07:48:58;3.47;;;3.27;;
9117;SDS011;4594;50.994;7.126;2023-07-22T07:51:26;5.10;;;3.80;;
9117;SDS011;4594;50.994;7.126;2023-07-22T07:53:53;3.43;;;3.13;;
9117;SDS011;4594;50.994;7.126;2023-07-22T07:56:21;3.43;;;3.17;;
9117;SDS011;4594;50.994;7.126;2023-07-22T07:58:48;4.03;;;3.73;;
9117;SDS011;4594;50.994;7.126;2023-07-22T08:01:16;4.27;;;3.97;;
9117;SDS011;4594;50.994;7.126;2023-07-22T08:03:42;4.10;;;3.60;;
9117;SDS011;4594;50.994;7.126;2023-07-22T08:06:09;3.87;;;3.53;;
9117;SDS011;4594;50.994;7.126;2023-07-22T08:08:35;3.80;;;3.50;;
9117;SDS011;4594;50.994;7.126;2023-07-22T08:11:03;3.93;;;3.40;;
9117;SDS011;4594;50.994;7.126;2023-07-22T08:13:35;3.40;;;3.20;;
9117;SDS011;4594;50.994;7.126;2023-07-22T08:16:02;3.90;;;3.60;;
9117;SDS011;4594;50.994;7.126;2023-07-22T08:18:29;3.57;;;3.27;;
9117;SDS011;4594;50.994;7.126;2023-07-22T08:20:56;3.10;;;2.90;;
9117;SDS011;4594;50.994;7.126;2023-07-22T08:23:22;3.13;;;2.93;;
9117;SDS011;4594;50.994;7.126;2023-07-22T08:25:49;3.30;;;3.00;;
9117;SDS011;4594;50.994;7.126;2023-07-22T08:28:15;3.60;;;3.30;;
9117;SDS011;4594;50.994;7.126;2023-07-22T08:30:41;9.67;;;3.53;;
9117;SDS011;4594;50.994;7.126;2023-07-22T08:33:11;3.63;;;3.33;;
9117;SDS011;4594;50.994;7.126;2023-07-22T08:35:37;3.30;;;3.10;;
9117;SDS011;4594;50.994;7.126;2023-07-22T08:38:04;4.43;;;3.50;;
9117;SDS011;4594;50.994;7.126;2023-07-22T08:40:37;3.37;;;3.17;;
9117;SDS011;4594;50.994;7.126;2023-07-22T08:43:06;4.27;;;3.00;;
9117;SDS011;4594;50.994;7.126;2023-07-22T08:45:37;3.30;;;3.00;;
9117;SDS011;4594;50.994;7.126;2023-07-22T08:48:05;4.03;;;3.33;;
9117;SDS011;4594;50.994;7.126;2023-07-22T08:50:44;3.03;;;2.83;;
9117;SDS011;4594;50.994;7.126;2023-07-22T08:53:13;3.10;;;2.80;;
9117;SDS011;4594;50.994;7.126;2023-07-22T08:55:38;4.07;;;3.13;;
9117;SDS011;4594;50.994;7.126;2023-07-22T08:58:07;2.80;;;2.70;;
9117;SDS011;4594;50.994;7.126;2023-07-22T09:00:35;3.80;;;3.17;;
9117;SDS011;4594;50.994;7.126;2023-07-22T09:03:05;3.93;;;2.73;;
9117;SDS011;4594;50.994;7.126;2023-07-22T09:05:32;3.17;;;2.97;;
9117;SDS011;4594;50.994;7.126;2023-07-22T09:08:01;3.10;;;2.90;;
9117;SDS011;4594;50.994;7.126;2023-07-22T09:10:29;3.50;;;3.20;;
9117;SDS011;4594;50.994;7.126;2023-07-22T09:12:57;2.33;;;2.23;;
9117;SDS011;4594;50.994;7.126;2023-07-22T09:15:25;2.80;;;2.60;;
9117;SDS011;4594;50.994;7.126;2023-07-22T09:17:52;2.73;;;2.60;;
9117;SDS011;4594;50.994;7.126;2023-07-22T09:20:17;2.73;;;2.60;;
9117;SDS011;4594;50.994;7.126;2023-07-22T09:22:46;2.30;;;2.20;;
9117;SDS011;4594;50.994;7.126;2023-07-22T09:27:47;2.47;;;2.37;;
9117;SDS011;4594;50.994;7.126;2023-07-22T09:32:52;2.80;;;2.60;;
9117;SDS011;4594;50.994;7.126;2023-07-22T09:35:30;2.93;;;2.73;;
9117;SDS011;4594;50.994;7.126;2023-07-22T09:38:09;2.83;;;2.63;;
9117;SDS011;4594;50.994;7.126;2023-07-22T09:40:35;2.83;;;2.40;;
9117;SDS011;4594;50.994;7.126;2023-07-22T09:43:01;4.00;;;2.50;;
9117;SDS011;4594;50.994;7.126;2023-07-22T09:45:28;3.80;;;2.63;;
9117;SDS011;4594;50.994;7.126;2023-07-22T09:47:57;2.93;;;2.73;;
9117;SDS011;4594;50.994;7.126;2023-07-22T09:50:24;2.20;;;2.10;;
9117;SDS011;4594;50.994;7.126;2023-07-22T09:52:52;2.90;;;2.30;;
9117;SDS011;4594;50.994;7.126;2023-07-22T09:55:24;2.73;;;2.63;;
9117;SDS011;4594;50.994;7.126;2023-07-22T10:00:29;2.33;;;2.23;;
9117;SDS011;4594;50.994;7.126;2023-07-22T10:02:58;2.70;;;2.60;;
9117;SDS011;4594;50.994;7.126;2023-07-22T10:05:25;2.60;;;2.40;;
9117;SDS011;4594;50.994;7.126;2023-07-22T10:07:54;2.53;;;2.43;;
9117;SDS011;4594;50.994;7.126;2023-07-22T10:10:26;2.17;;;2.07;;
9117;SDS011;4594;50.994;7.126;2023-07-22T10:13:03;5.43;;;2.33;;
9117;SDS011;4594;50.994;7.126;2023-07-22T10:15:30;2.43;;;2.33;;
9117;SDS011;4594;50.994;7.126;2023-07-22T10:17:59;3.50;;;2.67;;
9117;SDS011;4594;50.994;7.126;2023-07-22T10:20:27;3.27;;;2.53;;
9117;SDS011;4594;50.994;7.126;2023-07-22T10:22:54;2.50;;;2.40;;
9117;SDS011;4594;50.994;7.126;2023-07-22T10:25:21;2.50;;;2.30;;
9117;SDS011;4594;50.994;7.126;2023-07-22T10:27:48;3.60;;;2.40;;
9117;SDS011;4594;50.994;7.126;2023-07-22T10:30:17;2.40;;;2.30;;
9117;SDS011;4594;50.994;7.126;2023-07-22T10:32:47;2.47;;;2.27;;
9117;SDS011;4594;50.994;7.126;2023-07-22T10:35:17;3.30;;;3.00;;
9117;SDS011;4594;50.994;7.126;2023-07-22T10:37:55;5.83;;;4.33;;
9117;SDS011;4594;50.994;7.126;2023-07-22T10:40:32;4.97;;;4.20;;
9117;SDS011;4594;50.994;7.126;2023-07-22T10:43:10;16.40;;;6.20;;
9117;SDS011;4594;50.994;7.126;2023-07-22T10:45:40;3.40;;;3.20;;
9117;SDS011;4594;50.994;7.126;2023-07-22T10:48:11;3.13;;;2.83;;
9117;SDS011;4594;50.994;7.126;2023-07-22T11:01:24;1.70;;;1.70;;
9117;SDS011;4594;50.994;7.126;2023-07-22T11:06:51;2.17;;;1.97;;
9117;SDS011;4594;50.994;7.126;2023-07-22T11:11:55;5.77;;;1.67;;
9117;SDS011;4594;50.994;7.126;2023-07-22T11:17:01;12.50;;;1.97;;
9117;SDS011;4594;50.994;7.126;2023-07-22T11:19:32;1.37;;;1.37;;
9117;SDS011;4594;50.994;7.126;2023-07-22T11:21:59;1.73;;;1.50;;
9117;SDS011;4594;50.994;7.126;2023-07-22T11:24:25;7.00;;;4.63;;
9117;SDS011;4594;50.994;7.126;2023-07-22T11:26:52;4.67;;;4.27;;
9117;SDS011;4594;50.994;7.126;2023-07-22T11:29:18;3.13;;;2.93;;
9117;SDS011;4594;50.994;7.126;2023-07-22T11:31:45;2.57;;;2.20;;
9117;SDS011;4594;50.994;7.126;2023-07-22T11:34:14;1.93;;;1.83;;
9117;SDS011;4594;50.994;7.126;2023-07-22T11:36:42;1.87;;;1.80;;
9117;SDS011;4594;50.994;7.126;2023-07-22T11:39:10;1.57;;;1.47;;
9117;SDS011;4594;50.994;7.126;2023-07-22T11:41:39;1.30;;;1.30;;
9117;SDS011;4594;50.994;7.126;2023-07-22T11:44:09;1.90;;;1.80;;
9117;SDS011;4594;50.994;7.126;2023-07-22T11:46:52;1.50;;;1.50;;
9117;SDS011;4594;50.994;7.126;2023-07-22T11:49:32;1.77;;;1.70;;
9117;SDS011;4594;50.994;7.126;2023-07-22T11:52:04;7.37;;;1.80;;
9117;SDS011;4594;50.994;7.126;2023-07-22T11:54:32;1.53;;;1.47;;
9117;SDS011;4594;50.994;7.126;2023-07-22T11:57:16;1.70;;;1.63;;
9117;SDS011;4594;50.994;7.126;2023-07-22T12:02:16;1.83;;;1.67;;
9117;SDS011;4594;50.994;7.126;2023-07-22T12:05:00;1.40;;;1.40;;
9117;SDS011;4594;50.994;7.126;2023-07-22T12:07:28;1.50;;;1.50;;
9117;SDS011;4594;50.994;7.126;2023-07-22T12:09:56;2.03;;;1.90;;
9117;SDS011;4594;50.994;7.126;2023-07-22T12:17:51;1.90;;;1.80;;
9117;SDS011;4594;50.994;7.126;2023-07-22T12:20:27;1.93;;;1.80;;
9117;SDS011;4594;50.994;7.126;2023-07-22T12:22:55;2.60;;;1.53;;
9117;SDS011;4594;50.994;7.126;2023-07-22T12:25:22;1.57;;;1.57;;
9117;SDS011;4594;50.994;7.126;2023-07-22T12:27:49;5.17;;;2.00;;
9117;SDS011;4594;50.994;7.126;2023-07-22T12:30:15;1.80;;;1.70;;
9117;SDS011;4594;50.994;7.126;2023-07-22T12:32:41;8.20;;;3.13;;
9117;SDS011;4594;50.994;7.126;2023-07-22T12:35:07;5.87;;;3.20;;
9117;SDS011;4594;50.994;7.126;2023-07-22T12:37:34;5.27;;;3.10;;
9117;SDS011;4594;50.994;7.126;2023-07-22T12:40:00;3.63;;;3.33;;
9117;SDS011;4594;50.994;7.126;2023-07-22T12:42:26;3.20;;;3.00;;
9117;SDS011;4594;50.994;7.126;2023-07-22T12:44:52;3.73;;;2.47;;
9117;SDS011;4594;50.994;7.126;2023-07-22T12:47:18;2.50;;;2.30;;
9117;SDS011;4594;50.994;7.126;2023-07-22T12:49:43;2.20;;;2.10;;
9117;SDS011;4594;50.994;7.126;2023-07-22T12:52:09;1.70;;;1.70;;
9117;SDS011;4594;50.994;7.126;2023-07-22T12:54:35;1.63;;;1.63;;
9117;SDS011;4594;50.994;7.126;2023-07-22T12:57:01;1.60;;;1.60;;
9117;SDS011;4594;50.994;7.126;2023-07-22T12:59:27;1.83;;;1.73;;
9117;SDS011;4594;50.994;7.126;2023-07-22T13:01:53;1.60;;;1.60;;
9117;SDS011;4594;50.994;7.126;2023-07-22T13:04:19;2.07;;;1.50;;
9117;SDS011;4594;50.994;7.126;2023-07-22T13:06:45;1.50;;;1.40;;
9117;SDS011;4594;50.994;7.126;2023-07-22T13:09:11;1.50;;;1.40;;
9117;SDS011;4594;50.994;7.126;2023-07-22T13:11:36;1.67;;;1.67;;
9117;SDS011;4594;50.994;7.126;2023-07-22T13:14:02;1.83;;;1.73;;
9117;SDS011;4594;50.994;7.126;2023-07-22T13:16:28;7.47;;;1.70;;
9117;SDS011;4594;50.994;7.126;2023-07-22T13:18:54;1.93;;;1.70;;
9117;SDS011;4594;50.994;7.126;2023-07-22T13:21:20;1.60;;;1.60;;
9117;SDS011;4594;50.994;7.126;2023-07-22T13:23:45;1.93;;;1.83;;
9117;SDS011;4594;50.994;7.126;2023-07-22T13:26:11;1.73;;;1.63;;
9117;SDS011;4594;50.994;7.126;2023-07-22T13:28:37;1.40;;;1.40;;
9117;SDS011;4594;50.994;7.126;2023-07-22T13:31:02;1.70;;;1.70;;
9117;SDS011;4594;50.994;7.126;2023-07-22T13:33:28;1.80;;;1.60;;
9117;SDS011;4594;50.994;7.126;2023-07-22T13:35:54;1.47;;;1.40;;
9117;SDS011;4594;50.994;7.126;2023-07-22T13:38:19;1.90;;;1.80;;
9117;SDS011;4594;50.994;7.126;2023-07-22T13:40:46;1.50;;;1.50;;
9117;SDS011;4594;50.994;7.126;2023-07-22T13:43:11;1.90;;;1.80;;
9117;SDS011;4594;50.994;7.126;2023-07-22T13:45:37;1.80;;;1.70;;
9117;SDS011;4594;50.994;7.126;2023-07-22T13:48:03;3.20;;;1.80;;
9117;SDS011;4594;50.994;7.126;2023-07-22T13:50:29;3.60;;;3.33;;
9117;SDS011;4594;50.994;7.126;2023-07-22T13:52:55;3.57;;;3.20;;
9117;SDS011;4594;50.994;7.126;2023-07-22T13:55:21;2.93;;;2.73;;
9117;SDS011;4594;50.994;7.126;2023-07-22T13:57:47;2.30;;;2.17;;
9117;SDS011;4594;50.994;7.126;2023-07-22T14:00:13;1.90;;;1.90;;
9117;SDS011;4594;50.994;7.126;2023-07-22T14:02:39;2.47;;;1.70;;
9117;SDS011;4594;50.994;7.126;2023-07-22T14:05:06;1.67;;;1.67;;
9117;SDS011;4594;50.994;7.126;2023-07-22T14:07:32;1.80;;;1.80;;
9117;SDS011;4594;50.994;7.126;2023-07-22T14:10:00;1.90;;;1.80;;
9117;SDS011;4594;50.994;7.126;2023-07-22T14:12:25;2.20;;;2.10;;
9117;SDS011;4594;50.994;7.126;2023-07-22T14:14:51;5.60;;;2.27;;
9117;SDS011;4594;50.994;7.126;2023-07-22T14:17:17;2.77;;;2.57;;
9117;SDS011;4594;50.994;7.126;2023-07-22T14:19:42;3.90;;;3.33;;
9117;SDS011;4594;50.994;7.126;2023-07-22T14:22:08;3.10;;;2.90;;
9117;SDS011;4594;50.994;7.126;2023-07-22T14:24:34;2.70;;;2.47;;
9117;SDS011;4594;50.994;7.126;2023-07-22T14:26:59;2.50;;;2.40;;
9117;SDS011;4594;50.994;7.126;2023-07-22T14:29:25;2.40;;;2.30;;
9117;SDS011;4594;50.994;7.126;2023-07-22T14:31:51;3.00;;;2.80;;
9117;SDS011;4594;50.994;7.126;2023-07-22T14:34:17;2.57;;;2.37;;
9117;SDS011;4594;50.994;7.126;2023-07-22T14:36:42;2.50;;;2.40;;
9117;SDS011;4594;50.994;7.126;2023-07-22T14:39:08;1.90;;;1.80;;
9117;SDS011;4594;50.994;7.126;2023-07-22T14:41:35;1.77;;;1.67;;
9117;SDS011;4594;50.994;7.126;2023-07-22T14:44:00;1.93;;;1.83;;
9117;SDS011;4594;50.994;7.126;2023-07-22T14:46:26;3.00;;;2.80;;
9117;SDS011;4594;50.994;7.126;2023-07-22T14:48:52;2.10;;;2.00;;
9117;SDS011;4594;50.994;7.126;2023-07-22T14:51:17;3.00;;;2.80;;
9117;SDS011;4594;50.994;7.126;2023-07-22T14:53:43;2.53;;;2.33;;
9117;SDS011;4594;50.994;7.126;2023-07-22T14:56:09;2.20;;;2.10;;
9117;SDS011;4594;50.994;7.126;2023-07-22T14:58:35;5.20;;;2.53;;
9117;SDS011;4594;50.994;7.126;2023-07-22T15:01:00;2.43;;;2.33;;
9117;SDS011;4594;50.994;7.126;2023-07-22T15:03:26;3.07;;;2.87;;
9117;SDS011;4594;50.994;7.126;2023-07-22T15:05:52;3.57;;;3.27;;
9117;SDS011;4594;50.994;7.126;2023-07-22T15:08:17;2.60;;;2.40;;
9117;SDS011;4594;50.994;7.126;2023-07-22T15:10:43;4.37;;;2.70;;
9117;SDS011;4594;50.994;7.126;2023-07-22T15:13:09;2.03;;;1.93;;
9117;SDS011;4594;50.994;7.126;2023-07-22T15:15:34;2.27;;;2.17;;
9117;SDS011;4594;50.994;7.126;2023-07-22T15:18:00;2.07;;;1.97;;
9117;SDS011;4594;50.994;7.126;2023-07-22T15:20:26;2.43;;;2.30;;
9117;SDS011;4594;50.994;7.126;2023-07-22T15:22:52;4.20;;;2.37;;
9117;SDS011;4594;50.994;7.126;2023-07-22T15:25:18;2.77;;;2.57;;
9117;SDS011;4594;50.994;7.126;2023-07-22T15:27:43;5.47;;;2.33;;
9117;SDS011;4594;50.994;7.126;2023-07-22T15:30:09;2.33;;;2.20;;
9117;SDS011;4594;50.994;7.126;2023-07-22T15:32:35;2.40;;;2.30;;
9117;SDS011;4594;50.994;7.126;2023-07-22T15:35:01;2.20;;;2.10;;
9117;SDS011;4594;50.994;7.126;2023-07-22T15:37:27;2.63;;;2.50;;
9117;SDS011;4594;50.994;7.126;2023-07-22T15:39:53;5.07;;;2.50;;
9117;SDS011;4594;50.994;7.126;2023-07-22T15:42:18;2.93;;;2.63;;
9117;SDS011;4594;50.994;7.126;2023-07-22T15:44:44;2.93;;;2.47;;
9117;SDS011;4594;50.994;7.126;2023-07-22T15:47:10;2.77;;;2.57;;
9117;SDS011;4594;50.994;7.126;2023-07-22T15:49:35;2.73;;;2.47;;
9117;SDS011;4594;50.994;7.126;2023-07-22T15:52:01;2.63;;;2.53;;